Time;durP1;ratioP1;P1;durP2;ratioP2;P2;SDS_P1;SDS_P2;PMS_P1;PMS_P2;Temp;Humidity;BMP_temperature;BMP_pressure;BME280_temperature;BME280_humidity;BME280_pressure;Samples;Min_cycle;Max_cycle;Signal;HPM_P1;HPM_P2
2021/03/01 00:00:42;;;;;;;20.33;12.38;;;;;;;3.46;45.65;103178.53;4893031;28;100574;-70
2021/03/01 00:03:10;;;;;;;19.27;11.07;;;;;;;3.42;45.22;103174.72;4925969;28;98864;-71
2021/03/01 00:05:37;;;;;;;18.52;10.98;;;;;;;3.43;45.49;103178.22;4927018;28;97130;-70
2021/03/01 00:08:05;;;;;;;20.90;11.30;;;;;;;3.38;45.83;103182.19;4907819;28;97189;-70
2021/03/01 00:10:32;;;;;;;21.15;11.43;;;;;;;3.39;45.72;103184.00;4893779;28;100706;-70
2021/03/01 00:13:17;;;;;;;17.50;10.00;;;;;;;3.39;45.81;103190.22;4924680;28;96972;-71
2021/03/01 00:15:44;;;;;;;18.23;10.77;;;;;;;3.43;45.16;103186.13;4926911;28;97081;-71
2021/03/01 00:18:12;;;;;;;19.08;10.73;;;;;;;3.42;45.29;103187.88;4925993;28;97599;-71
2021/03/01 00:20:40;;;;;;;17.75;9.95;;;;;;;3.42;45.91;103193.13;4922847;28;98491;-71
2021/03/01 00:23:26;;;;;;;19.02;10.73;;;;;;;3.42;45.97;103197.47;4925410;28;100671;-72
2021/03/01 00:25:53;;;;;;;16.80;9.50;;;;;;;3.42;45.19;103195.75;4920989;28;97000;-71
2021/03/01 00:28:20;;;;;;;21.05;11.13;;;;;;;3.42;45.13;103193.13;4926350;28;96801;-71
2021/03/01 00:30:47;;;;;;;19.13;10.77;;;;;;;3.43;45.91;103188.75;4926984;28;97015;-72
2021/03/01 00:33:13;;;;;;;18.55;10.50;;;;;;;3.43;45.26;103191.41;4908480;28;99607;-71
2021/03/01 00:35:41;;;;;;;21.13;10.82;;;;;;;3.40;45.74;103193.78;4923807;28;97273;-71
2021/03/01 00:38:09;;;;;;;22.60;10.95;;;;;;;3.41;45.49;103193.91;4928988;28;97626;-70
2021/03/01 00:40:36;;;;;;;19.95;12.23;;;;;;;3.40;45.78;103192.06;4926248;28;98507;-71
2021/03/01 00:43:04;;;;;;;19.83;11.05;;;;;;;3.42;45.77;103190.50;4928284;28;98663;-70
2021/03/01 00:45:31;;;;;;;19.45;11.82;;;;;;;3.48;45.56;103200.66;4910913;28;98490;-71
2021/03/01 00:47:58;;;;;;;17.92;11.05;;;;;;;3.48;45.60;103191.00;4912670;28;97493;-71
2021/03/01 00:50:25;;;;;;;22.30;11.77;;;;;;;3.46;45.80;103192.59;4929233;28;99336;-71
2021/03/01 00:52:52;;;;;;;20.92;12.20;;;;;;;3.47;45.12;103188.25;4894330;28;99214;-71
2021/03/01 00:55:20;;;;;;;23.30;12.52;;;;;;;3.50;45.36;103188.50;4925803;28;96802;-71
2021/03/01 00:57:54;;;;;;;22.00;12.15;;;;;;;3.50;45.11;103191.16;4912297;28;97060;-71
2021/03/01 01:00:21;;;;;;;20.83;12.52;;;;;;;3.45;45.41;103177.59;4911580;28;98521;-71
2021/03/01 01:02:58;;;;;;;23.67;12.30;;;;;;;3.40;45.77;103192.06;4918393;28;99512;-71
2021/03/01 01:05:37;;;;;;;22.17;11.80;;;;;;;3.36;45.57;103173.22;4897210;28;97283;-71
2021/03/01 01:08:06;;;;;;;21.45;12.43;;;;;;;3.30;45.49;103181.50;4929718;28;96826;-71
2021/03/01 01:10:33;;;;;;;25.45;13.32;;;;;;;3.28;45.49;103175.19;4926117;28;98666;-72
2021/03/01 01:13:00;;;;;;;22.48;13.27;;;;;;;3.22;46.08;103169.41;4908874;28;100662;-72
2021/03/01 01:15:27;;;;;;;26.55;13.27;;;;;;;3.21;45.68;103168.47;4913147;28;96966;-72
2021/03/01 01:17:54;;;;;;;24.30;14.07;;;;;;;3.19;46.01;103172.66;4928842;28;97497;-71
2021/03/01 01:20:22;;;;;;;23.27;13.38;;;;;;;3.19;45.83;103164.78;4907491;28;100227;-71
2021/03/01 01:22:48;;;;;;;25.98;14.13;;;;;;;3.20;45.74;103165.72;4923823;28;97590;-71
2021/03/01 01:25:34;;;;;;;23.25;13.15;;;;;;;3.23;45.63;103160.69;4896283;28;96981;-71
2021/03/01 01:28:02;;;;;;;22.83;12.63;;;;;;;3.23;45.22;103160.69;4926411;28;96775;-71
2021/03/01 01:30:28;;;;;;;21.23;13.27;;;;;;;3.27;46.00;103165.47;4923228;28;100452;-72
2021/03/01 01:32:55;;;;;;;24.73;13.35;;;;;;;3.28;45.85;103156.75;4927318;28;97356;-71
2021/03/01 01:35:22;;;;;;;25.33;14.07;;;;;;;3.32;45.46;103158.88;4911069;28;97439;-72
2021/03/01 01:37:49;;;;;;;24.13;12.77;;;;;;;3.34;45.82;103154.69;4922295;28;96764;-72
2021/03/01 01:40:18;;;;;;;22.42;11.93;;;;;;;3.39;45.62;103157.69;4911950;28;99264;-72
2021/03/01 01:42:45;;;;;;;26.20;12.65;;;;;;;3.38;45.61;103158.50;4908108;28;99736;-72
2021/03/01 01:45:14;;;;;;;23.10;12.75;;;;;;;3.37;45.71;103168.09;4908770;28;97399;-71
2021/03/01 01:47:42;;;;;;;21.77;13.80;;;;;;;3.38;45.80;103167.31;4919792;28;97728;-72
2021/03/01 01:50:11;;;;;;;24.65;13.02;;;;;;;3.42;45.32;103166.81;4926625;28;97228;-71
2021/03/01 01:52:38;;;;;;;21.58;11.73;;;;;;;3.44;45.27;103161.69;4909301;28;97600;-71
2021/03/01 01:55:07;;;;;;;24.15;11.75;;;;;;;3.46;44.99;103171.53;4927916;28;97165;-71
2021/03/01 01:57:34;;;;;;;20.40;11.23;;;;;;;3.45;45.15;103174.97;4924558;28;97420;-72
2021/03/01 02:00:05;;;;;;;20.27;11.35;;;;;;;3.47;44.96;103175.09;4928175;28;97811;-70
2021/03/01 02:02:33;;;;;;;24.15;11.70;;;;;;;3.46;45.62;103170.63;4925840;28;96858;-70
2021/03/01 02:05:04;;;;;;;19.88;10.05;;;;;;;3.47;45.18;103173.41;4926260;28;96775;-70
2021/03/01 02:07:32;;;;;;;20.25;11.05;;;;;;;3.48;45.53;103175.22;4926458;28;97708;-70
2021/03/01 02:10:09;;;;;;;17.95;10.88;;;;;;;3.48;45.23;103176.97;4911831;28;99213;-70
2021/03/01 02:12:54;;;;;;;19.30;10.88;;;;;;;3.54;45.37;103181.03;4910875;28;99213;-70
2021/03/01 02:15:26;;;;;;;19.10;11.30;;;;;;;3.54;45.01;103185.38;4893740;28;97620;-70
2021/03/01 02:17:53;;;;;;;22.45;11.63;;;;;;;3.55;45.21;103179.34;4909822;28;97209;-73
2021/03/01 02:20:20;;;;;;;20.30;11.45;;;;;;;3.57;44.99;103173.38;4910817;28;98788;-72
2021/03/01 02:22:47;;;;;;;22.45;12.68;;;;;;;3.57;44.81;103176.03;4924295;28;97498;-73
2021/03/01 02:25:17;;;;;;;24.58;12.43;;;;;;;3.54;44.91;103178.41;4930192;28;97314;-72
2021/03/01 02:27:48;;;;;;;21.63;11.98;;;;;;;3.55;44.89;103176.69;4917640;28;96607;-73
2021/03/01 02:30:19;;;;;;;22.00;12.38;;;;;;;3.53;45.31;103173.91;4923542;28;98956;-72
2021/03/01 02:32:47;;;;;;;25.92;13.38;;;;;;;3.55;45.15;103177.59;4911162;28;98028;-73
2021/03/01 02:35:14;;;;;;;22.08;11.93;;;;;;;3.55;45.50;103177.59;4928204;28;97038;-73
2021/03/01 02:37:42;;;;;;;17.95;11.80;;;;;;;3.56;45.67;103174.19;4913230;28;97062;-73
2021/03/01 02:40:11;;;;;;;22.95;12.98;;;;;;;3.58;45.41;103172.63;4910511;28;100394;-73
2021/03/01 02:42:39;;;;;;;20.55;11.95;;;;;;;3.55;45.18;103171.44;4911367;28;100721;-72
2021/03/01 02:45:25;;;;;;;21.67;12.27;;;;;;;3.56;45.04;103181.16;4926218;28;96682;-72
2021/03/01 02:47:52;;;;;;;19.25;11.77;;;;;;;3.54;45.15;103174.84;4928335;28;97078;-72
2021/03/01 02:50:20;;;;;;;19.58;11.05;;;;;;;3.54;45.03;103174.84;4927371;28;97580;-72
2021/03/01 02:52:48;;;;;;;19.75;11.95;;;;;;;3.53;45.21;103176.53;4925330;28;97586;-73
2021/03/01 02:55:16;;;;;;;18.92;11.88;;;;;;;3.52;45.10;103171.16;4911403;28;97171;-72
2021/03/01 02:57:43;;;;;;;23.25;12.18;;;;;;;3.51;45.33;103164.97;4924968;28;96673;-71
2021/03/01 03:00:13;;;;;;;22.48;11.55;;;;;;;3.49;45.14;103161.28;4911317;28;99246;-72
2021/03/01 03:02:41;;;;;;;19.80;12.13;;;;;;;3.45;45.40;103156.53;4926667;28;97754;-72
2021/03/01 03:05:10;;;;;;;17.80;10.48;;;;;;;3.44;45.14;103159.94;4927592;28;97044;-72
2021/03/01 03:07:39;;;;;;;21.42;11.68;;;;;;;3.43;45.44;103158.13;4891839;28;97406;-72
2021/03/01 03:10:08;;;;;;;19.92;11.32;;;;;;;3.42;45.34;103153.66;4909610;28;99446;-72
2021/03/01 03:12:38;;;;;;;20.92;12.50;;;;;;;3.42;45.25;103152.72;4894032;28;100665;-72
2021/03/01 03:15:06;;;;;;;22.75;12.23;;;;;;;3.44;45.40;103159.94;4910100;28;97607;-72
2021/03/01 03:17:33;;;;;;;20.48;12.60;;;;;;;3.48;45.22;103162.06;4909798;28;97222;-72
2021/03/01 03:20:01;;;;;;;23.73;12.55;;;;;;;3.48;45.29;103158.53;4910072;28;101030;-72
2021/03/01 03:22:28;;;;;;;22.02;12.45;;;;;;;3.48;45.22;103143.63;4907770;28;100416;-72
2021/03/01 03:24:55;;;;;;;20.38;11.20;;;;;;;3.49;45.39;103149.84;4927240;28;97224;-73
2021/03/01 03:27:21;;;;;;;19.90;11.07;;;;;;;3.46;45.12;103150.47;4922387;28;97238;-72
2021/03/01 03:29:49;;;;;;;18.17;11.20;;;;;;;3.48;45.25;103154.16;4926723;28;98966;-72
2021/03/01 03:32:16;;;;;;;20.10;11.10;;;;;;;3.49;45.48;103150.75;4924829;28;100210;-72
2021/03/01 03:34:43;;;;;;;20.38;11.85;;;;;;;3.48;45.56;103151.53;4910981;28;97979;-73
2021/03/01 03:37:12;;;;;;;23.67;12.43;;;;;;;3.46;45.55;103149.56;4922930;28;97410;-72
2021/03/01 03:39:42;;;;;;;21.08;11.93;;;;;;;3.42;45.64;103153.66;4909734;28;99491;-72
2021/03/01 03:42:10;;;;;;;21.35;12.90;;;;;;;3.37;45.26;103154.94;4926832;28;98957;-73
2021/03/01 03:44:40;;;;;;;18.08;11.48;;;;;;;3.36;45.63;103153.09;4911538;28;96897;-73
2021/03/01 03:47:08;;;;;;;22.40;11.80;;;;;;;3.36;45.53;103158.38;4921553;28;97625;-73
2021/03/01 03:49:37;;;;;;;21.35;12.90;;;;;;;3.36;45.39;103147.84;4925729;28;99381;-73
2021/03/01 03:52:05;;;;;;;19.42;10.95;;;;;;;3.35;45.43;103150.34;4924076;28;97971;-73
2021/03/01 03:54:34;;;;;;;18.85;11.25;;;;;;;3.34;45.35;103148.47;4909690;28;97060;-72
2021/03/01 03:57:03;;;;;;;21.58;11.15;;;;;;;3.33;45.44;103151.91;4928579;28;96972;-73
2021/03/01 03:59:33;;;;;;;22.55;12.10;;;;;;;3.32;45.11;103153.63;4927628;28;99963;-72
2021/03/01 04:02:00;;;;;;;19.33;11.10;;;;;;;3.33;45.35;103155.44;4925825;28;98646;-73
2021/03/01 04:04:29;;;;;;;80.80;38.45;;;;;;;3.30;45.50;103164.78;4926786;28;98330;-73
2021/03/01 04:06:58;;;;;;;37.58;20.85;;;;;;;3.31;45.71;103164.00;4905905;28;97888;-73
2021/03/01 04:09:26;;;;;;;18.77;11.80;;;;;;;3.29;45.24;103148.09;4918214;28;99368;-73
2021/03/01 04:11:53;;;;;;;22.33;11.80;;;;;;;3.30;45.96;103149.00;4906574;28;99193;-73
2021/03/01 04:14:22;;;;;;;20.27;12.13;;;;;;;3.32;45.43;103150.97;4908969;28;96906;-73
2021/03/01 04:16:51;;;;;;;22.40;11.90;;;;;;;3.35;45.24;103151.25;4908892;28;97996;-72
2021/03/01 04:19:21;;;;;;;24.70;11.80;;;;;;;3.39;45.10;103150.72;4893773;28;98794;-73
2021/03/01 04:21:52;;;;;;;21.33;12.07;;;;;;;3.39;45.78;103153.38;4911689;28;99887;-72
2021/03/01 04:24:19;;;;;;;22.15;12.38;;;;;;;3.40;45.08;103144.69;4927497;28;96908;-72
2021/03/01 04:26:48;;;;;;;21.58;12.13;;;;;;;3.40;45.76;103144.69;4924022;28;96925;-72
2021/03/01 04:29:15;;;;;;;21.23;11.90;;;;;;;3.38;45.64;103146.28;4913335;28;96974;-72
2021/03/01 04:31:44;;;;;;;21.20;12.00;;;;;;;3.40;45.28;103157.84;4895191;28;98897;-72
2021/03/01 04:34:11;;;;;;;21.42;11.10;;;;;;;3.40;45.46;103154.28;4931267;28;97308;-72
2021/03/01 04:36:38;;;;;;;15.55;10.65;;;;;;;3.44;45.49;103151.16;4929632;28;97435;-72
2021/03/01 04:39:06;;;;;;;19.05;11.48;;;;;;;3.45;45.01;103147.72;4910775;28;99595;-71
2021/03/01 04:41:34;;;;;;;22.75;12.45;;;;;;;3.45;45.58;103153.91;4911029;28;100346;-73
2021/03/01 04:44:02;;;;;;;19.88;10.60;;;;;;;3.47;45.63;103157.59;4912424;28;97511;-72
2021/03/01 04:46:30;;;;;;;17.45;11.07;;;;;;;3.49;45.33;103156.03;4931264;28;98932;-72
2021/03/01 04:48:57;;;;;;;22.27;11.88;;;;;;;3.49;45.26;103153.41;4917670;28;98275;-73
2021/03/01 04:51:25;;;;;;;18.70;11.27;;;;;;;3.49;45.21;103155.09;4911549;28;99262;-73
2021/03/01 04:53:53;;;;;;;22.80;11.60;;;;;;;3.48;45.09;103163.78;4933952;28;97372;-72
2021/03/01 04:56:21;;;;;;;21.05;11.55;;;;;;;3.47;45.34;103160.22;4915650;28;97126;-71
2021/03/01 04:58:48;;;;;;;18.60;11.38;;;;;;;3.48;45.28;103159.44;4914515;28;98166;-74
2021/03/01 05:01:16;;;;;;;24.08;12.25;;;;;;;3.50;44.98;103155.22;4909420;28;98426;-73
2021/03/01 05:03:43;;;;;;;20.70;11.48;;;;;;;3.52;44.87;103158.91;4923062;28;96913;-72
2021/03/01 05:06:11;;;;;;;46.30;26.00;;;;;;;3.51;45.69;103164.97;4928476;28;98327;-72
2021/03/01 05:08:39;;;;;;;30.45;16.80;;;;;;;3.51;44.92;103157.09;4914802;28;100629;-73
2021/03/01 05:11:06;;;;;;;19.92;11.55;;;;;;;3.51;45.35;103164.06;4928706;28;98013;-73
2021/03/01 05:13:34;;;;;;;19.77;11.50;;;;;;;3.51;44.95;103164.06;4917827;28;97583;-72
2021/03/01 05:16:02;;;;;;;21.13;11.85;;;;;;;3.49;45.40;103169.19;4917148;28;96831;-73
2021/03/01 05:18:29;;;;;;;20.67;11.43;;;;;;;3.48;44.92;103162.06;4938353;28;97651;-72
2021/03/01 05:21:14;;;;;;;20.40;11.40;;;;;;;3.49;45.64;103163.00;4915302;28;99062;-72
2021/03/01 05:23:41;;;;;;;23.80;11.18;;;;;;;3.49;45.05;103169.19;4926841;28;98193;-72
2021/03/01 05:26:08;;;;;;;21.70;11.05;;;;;;;3.51;45.16;103175.50;4928278;28;97141;-72
2021/03/01 05:28:37;;;;;;;20.83;12.52;;;;;;;3.53;45.45;103178.28;4928269;28;98917;-72
2021/03/01 05:31:04;;;;;;;21.38;12.60;;;;;;;3.52;45.36;103174.72;4912569;28;98505;-72
2021/03/01 05:33:31;;;;;;;20.98;11.70;;;;;;;3.53;45.22;103181.81;4923209;28;96840;-72
2021/03/01 05:35:58;;;;;;;21.83;12.35;;;;;;;3.49;45.05;103184.97;4926196;28;96755;-72
2021/03/01 05:38:25;;;;;;;30.50;17.20;;;;;;;3.49;45.37;103177.09;4911766;28;99392;-73
2021/03/01 05:40:52;;;;;;;24.98;14.45;;;;;;;3.49;45.27;103179.72;4930018;28;100476;-72
2021/03/01 05:43:19;;;;;;;24.08;13.35;;;;;;;3.49;45.21;103186.69;4930114;28;97244;-72
2021/03/01 05:45:48;;;;;;;27.92;13.73;;;;;;;3.48;45.40;103187.50;4933485;28;96881;-73
2021/03/01 05:48:16;;;;;;;23.52;13.70;;;;;;;3.46;45.24;103181.16;4929328;28;98583;-72
2021/03/01 05:50:43;;;;;;;25.27;13.13;;;;;;;3.43;45.28;103180.88;4934988;28;97368;-72
2021/03/01 05:53:13;;;;;;;20.70;11.90;;;;;;;3.42;45.19;103190.50;4911208;28;98257;-72
2021/03/01 05:55:40;;;;;;;25.23;12.02;;;;;;;3.41;45.50;103186.00;4931663;28;97460;-72
2021/03/01 05:58:08;;;;;;;19.67;11.07;;;;;;;3.42;45.16;103189.56;4926537;28;96758;-72
2021/03/01 06:00:35;;;;;;;19.88;11.02;;;;;;;3.42;44.92;103192.19;4895864;28;98456;-72
2021/03/01 06:03:04;;;;;;;23.85;11.30;;;;;;;3.42;45.62;103195.75;4915822;28;97194;-72
2021/03/01 06:05:31;;;;;;;21.85;10.57;;;;;;;3.41;45.11;103195.59;4917803;28;97302;-72
2021/03/01 06:07:59;;;;;;;22.60;11.48;;;;;;;3.41;44.73;103195.59;4918757;28;98739;-72
2021/03/01 06:10:25;;;;;;;19.35;10.68;;;;;;;3.39;45.24;103192.84;4899775;28;100747;-72
2021/03/01 06:12:53;;;;;;;19.60;10.70;;;;;;;3.38;45.00;103192.72;4934079;28;96984;-73
2021/03/01 06:15:20;;;;;;;23.58;11.18;;;;;;;3.40;45.73;103197.34;4914705;28;97223;-72
2021/03/01 06:18:10;;;;;;;21.92;10.43;;;;;;;3.38;45.02;103200.59;4929273;28;96847;-72
2021/03/01 06:20:37;;;;;;;21.77;10.07;;;;;;;3.36;45.69;103203.09;4923701;28;97741;-72
2021/03/01 06:23:05;;;;;;;22.83;10.70;;;;;;;3.36;45.01;103204.81;4894414;28;96814;-72
2021/03/01 06:25:32;;;;;;;20.70;10.32;;;;;;;3.36;45.02;103199.53;4910398;28;96969;-72
2021/03/01 06:28:01;;;;;;;20.92;10.57;;;;;;;3.37;45.53;103202.31;4923691;28;99030;-72
2021/03/01 06:30:29;;;;;;;23.05;11.18;;;;;;;3.37;45.46;103197.03;4901958;28;99356;-73
2021/03/01 06:33:08;;;;;;;20.58;9.85;;;;;;;3.40;45.30;103205.22;4922074;28;96766;-73
2021/03/01 06:35:38;;;;;;;20.83;9.38;;;;;;;3.42;44.95;103211.56;4924124;28;97034;-73
2021/03/01 06:38:21;;;;;;;22.67;12.07;;;;;;;3.42;45.57;103214.19;4925571;28;99740;-73
2021/03/01 06:41:21;;;;;;;17.13;9.57;;;;;;;3.41;45.34;103209.69;4910274;28;99237;-73
2021/03/01 06:43:57;;;;;;;20.80;10.10;;;;;;;3.43;45.54;103202.84;4926592;28;96900;-72
2021/03/01 06:46:25;;;;;;;22.52;10.68;;;;;;;3.46;45.36;103208.38;4892391;28;97160;-72
2021/03/01 06:48:53;;;;;;;22.92;11.55;;;;;;;3.48;44.89;103208.53;4923688;28;97846;-72
2021/03/01 06:51:21;;;;;;;21.77;11.38;;;;;;;3.43;44.83;103200.22;4907657;28;99214;-72
2021/03/01 06:53:58;;;;;;;18.08;9.85;;;;;;;3.39;45.43;103208.63;4907888;28;96934;-72
2021/03/01 06:56:36;;;;;;;25.08;11.30;;;;;;;3.41;45.75;103203.50;4922179;28;97594;-72
2021/03/01 06:59:14;;;;;;;18.23;9.95;;;;;;;3.40;44.87;103207.88;4909663;28;98686;-73
2021/03/01 07:01:49;;;;;;;18.00;10.27;;;;;;;3.38;45.28;103209.44;4922293;28;97653;-73
2021/03/01 07:04:22;;;;;;;18.48;11.15;;;;;;;3.40;45.34;103210.50;4908328;28;97010;-72
2021/03/01 07:06:51;;;;;;;19.30;10.23;;;;;;;3.41;45.12;103203.50;4919870;28;97408;-71
2021/03/01 07:09:19;;;;;;;20.00;11.15;;;;;;;3.45;45.20;103206.56;4906118;28;97769;-72
2021/03/01 07:11:46;;;;;;;21.33;9.68;;;;;;;3.45;45.31;103206.56;4904173;28;100771;-71
2021/03/01 07:14:15;;;;;;;23.33;10.98;;;;;;;3.46;45.19;103221.53;4923800;28;96968;-72
2021/03/01 07:16:43;;;;;;;20.20;10.82;;;;;;;3.46;45.15;103211.00;4917073;28;97335;-72
2021/03/01 07:19:12;;;;;;;20.05;10.68;;;;;;;3.46;45.13;103211.00;4920797;28;97809;-72
2021/03/01 07:22:00;;;;;;;21.13;10.68;;;;;;;3.47;44.88;103207.63;4919265;28;97645;-72
2021/03/01 07:24:29;;;;;;;21.48;9.98;;;;;;;3.48;45.17;103212.06;4918477;28;96920;-72
2021/03/01 07:26:57;;;;;;;20.30;10.10;;;;;;;3.48;45.18;103208.53;4919428;28;97372;-72
2021/03/01 07:29:25;;;;;;;20.70;9.68;;;;;;;3.49;44.89;103210.38;4921332;28;98465;-72
2021/03/01 07:31:57;;;;;;;18.33;9.15;;;;;;;3.49;45.15;103208.66;4926672;28;97262;-72
2021/03/01 07:34:24;;;;;;;18.63;10.25;;;;;;;3.50;44.70;103210.50;4890188;28;97685;-72
2021/03/01 07:36:53;;;;;;;24.25;12.55;;;;;;;3.53;45.40;103221.28;4926992;28;96946;-73
2021/03/01 07:39:20;;;;;;;20.52;10.07;;;;;;;3.53;44.78;103216.03;4927098;28;98784;-72
2021/03/01 07:41:48;;;;;;;21.33;10.18;;;;;;;3.54;44.98;103223.16;4907722;28;99840;-73
2021/03/01 07:44:34;;;;;;;20.23;10.45;;;;;;;3.55;45.25;103224.97;4922707;28;96942;-72
2021/03/01 07:47:03;;;;;;;21.13;10.70;;;;;;;3.60;45.05;103212.25;4904020;28;97821;-72
2021/03/01 07:49:37;;;;;;;18.40;10.00;;;;;;;3.60;44.69;103226.34;4917881;28;99061;-72
2021/03/01 07:52:05;;;;;;;19.83;10.13;;;;;;;3.61;44.87;103215.00;4905399;28;98419;-72
2021/03/01 07:54:52;;;;;;;21.77;10.02;;;;;;;3.58;45.41;103214.75;4920445;28;96887;-72
2021/03/01 07:57:19;;;;;;;17.55;9.18;;;;;;;3.60;45.03;103223.69;4909020;28;97724;-72
2021/03/01 07:59:46;;;;;;;17.45;9.57;;;;;;;3.63;44.57;103226.59;4919834;28;99000;-73
2021/03/01 08:02:24;;;;;;;19.27;10.40;;;;;;;3.65;44.96;103222.44;4920901;28;97126;-72
2021/03/01 08:04:53;;;;;;;22.42;10.70;;;;;;;3.63;45.16;103218.69;4907313;28;97385;-72
2021/03/01 08:07:38;;;;;;;18.70;9.70;;;;;;;3.63;45.25;103226.59;4920944;28;97402;-73
2021/03/01 08:10:08;;;;;;;18.10;9.60;;;;;;;3.68;44.58;103237.53;4889875;28;98105;-73
2021/03/01 08:12:58;;;;;;;20.08;10.43;;;;;;;3.69;44.88;103227.19;4900673;28;99487;-72
2021/03/01 08:15:27;;;;;;;20.05;10.50;;;;;;;3.70;44.97;103229.00;4914145;28;97120;-72
2021/03/01 08:17:56;;;;;;;17.02;9.80;;;;;;;3.73;44.82;103226.63;4926093;28;96829;-72
2021/03/01 08:20:36;;;;;;;17.95;9.80;;;;;;;3.74;45.01;103224.94;4929273;28;100505;-72
2021/03/01 08:23:18;;;;;;;20.25;9.88;;;;;;;3.78;45.03;103241.16;4919586;28;100829;-73
2021/03/01 08:25:51;;;;;;;14.77;8.40;;;;;;;3.79;45.15;103229.81;4924301;28;97904;-72
2021/03/01 08:28:45;;;;;;;14.80;9.05;;;;;;;3.82;44.51;103245.91;4927074;28;96968;-72
2021/03/01 08:31:19;;;;;;;17.60;8.98;;;;;;;3.80;44.69;103244.84;4924821;28;97625;-71
2021/03/01 08:33:47;;;;;;;18.40;9.55;;;;;;;3.86;44.54;103233.91;4898395;28;98555;-72
2021/03/01 08:36:27;;;;;;;17.65;9.60;;;;;;;3.92;44.93;103250.22;4907295;28;97286;-72
2021/03/01 08:38:55;;;;;;;17.98;10.25;;;;;;;3.89;44.48;103248.28;4901511;28;97397;-71
2021/03/01 08:41:44;;;;;;;15.65;9.15;;;;;;;3.89;44.91;103243.00;4933523;28;97332;-72
2021/03/01 08:44:21;;;;;;;16.45;9.10;;;;;;;3.91;44.93;103246.69;4931035;28;100892;-72
2021/03/01 08:46:50;;;;;;;18.30;8.75;;;;;;;3.94;44.84;103249.59;4932550;28;96913;-72
2021/03/01 08:49:24;;;;;;;17.33;9.40;;;;;;;3.97;44.37;103246.31;4917803;28;97304;-73
2021/03/01 08:51:54;;;;;;;15.82;9.45;;;;;;;4.00;44.29;103250.13;4914088;28;98155;-72
2021/03/01 08:54:29;;;;;;;16.50;9.15;;;;;;;4.03;44.28;103249.47;4931403;28;97659;-73
2021/03/01 08:57:04;;;;;;;16.33;8.25;;;;;;;4.07;44.27;103257.78;4912704;28;96885;-73
2021/03/01 08:59:32;;;;;;;14.30;8.93;;;;;;;4.07;44.51;103255.13;4927934;28;97765;-73
2021/03/01 09:01:58;;;;;;;14.40;8.30;;;;;;;4.06;44.13;103261.19;4914343;28;99322;-73
2021/03/01 09:04:25;;;;;;;13.23;7.88;;;;;;;4.07;44.44;103265.69;4926165;28;98001;-73
2021/03/01 09:06:52;;;;;;;15.23;8.50;;;;;;;4.07;44.34;103262.13;4930575;28;96844;-74
2021/03/01 09:09:47;;;;;;;11.38;7.43;;;;;;;4.03;44.02;103274.09;4929040;28;97237;-74
2021/03/01 09:12:19;;;;;;;10.45;7.50;;;;;;;4.03;44.22;103271.47;4922124;28;97824;-74
2021/03/01 09:14:47;;;;;;;11.27;7.68;;;;;;;4.03;44.32;103275.81;4924836;28;97757;-74
2021/03/01 09:17:14;;;;;;;7.53;6.72;;;;;;;4.02;44.44;103279.25;4925197;28;96859;-74
2021/03/01 09:19:41;;;;;;;10.77;7.10;;;;;;;4.04;43.98;103272.41;4924021;28;96777;-74
2021/03/01 09:22:08;;;;;;;10.63;6.93;;;;;;;4.06;43.94;103277.00;4933551;28;97117;-73
2021/03/01 09:24:37;;;;;;;10.75;6.97;;;;;;;4.05;44.08;103277.78;4919247;28;99569;-74
2021/03/01 09:27:04;;;;;;;9.98;7.13;;;;;;;4.06;44.28;103282.25;4904949;28;97014;-73
2021/03/01 09:29:33;;;;;;;10.90;7.07;;;;;;;4.13;43.74;103279.38;4900215;28;97157;-74
2021/03/01 09:32:00;;;;;;;10.43;7.00;;;;;;;4.13;44.14;103268.81;4916575;28;98844;-74
2021/03/01 09:34:28;;;;;;;11.23;6.75;;;;;;;4.16;44.15;103268.19;4924407;28;99227;-74
2021/03/01 09:37:11;;;;;;;9.68;6.80;;;;;;;4.20;43.90;103276.50;4911885;28;97373;-74
2021/03/01 09:39:43;;;;;;;13.98;8.18;;;;;;;4.23;43.94;103275.81;4909129;28;96904;-74
2021/03/01 09:42:10;;;;;;;15.57;8.43;;;;;;;4.25;43.88;103268.97;4908465;28;97221;-73
2021/03/01 09:44:39;;;;;;;12.50;8.38;;;;;;;4.27;43.68;103271.72;4899970;28;99618;-75
2021/03/01 09:47:08;;;;;;;16.30;8.07;;;;;;;4.27;43.97;103261.19;4909345;28;97544;-74
2021/03/01 09:49:36;;;;;;;11.43;8.00;;;;;;;4.26;43.63;103267.25;4926640;28;96760;-75
2021/03/01 09:52:04;;;;;;;15.10;8.68;;;;;;;4.28;43.96;103268.31;4911511;28;97714;-74
2021/03/01 09:54:31;;;;;;;12.57;7.13;;;;;;;4.23;43.72;103266.22;4928878;28;97807;-74
2021/03/01 09:57:05;;;;;;;12.60;7.65;;;;;;;4.19;44.05;103257.88;4928014;28;97060;-74
2021/03/01 09:59:32;;;;;;;9.77;7.78;;;;;;;4.22;43.93;103259.06;4911605;28;98181;-74
2021/03/01 10:02:08;;;;;;;14.05;7.35;;;;;;;4.24;43.72;103259.22;4906220;28;99433;-76
2021/03/01 10:04:35;;;;;;;11.80;7.50;;;;;;;4.26;43.74;103260.28;4909277;28;97798;-74
2021/03/01 10:07:18;;;;;;;8.15;7.15;;;;;;;4.29;44.01;103254.34;4922084;28;97200;-75
2021/03/01 10:09:47;;;;;;;9.68;7.20;;;;;;;4.32;43.77;103249.34;4913306;28;96980;-75
2021/03/01 10:12:14;;;;;;;14.27;8.65;;;;;;;4.37;43.60;103254.19;4918893;28;98813;-73
2021/03/01 10:14:42;;;;;;;10.68;8.13;;;;;;;4.39;43.40;103251.72;4929690;28;97905;-74
2021/03/01 10:17:17;;;;;;;12.60;7.80;;;;;;;4.41;43.21;103253.66;4909985;28;97149;-74
2021/03/01 10:19:45;;;;;;;12.90;6.93;;;;;;;4.47;43.69;103250.63;4915478;28;96927;-73
2021/03/01 10:22:12;;;;;;;12.32;7.53;;;;;;;4.52;43.31;103250.22;4932045;28;97019;-74
2021/03/01 10:24:43;;;;;;;11.25;8.25;;;;;;;4.56;43.13;103247.06;4926501;28;96809;-75
2021/03/01 10:27:12;;;;;;;12.73;9.40;;;;;;;4.57;43.07;103259.44;4915067;28;97412;-74
2021/03/01 10:29:41;;;;;;;11.45;8.18;;;;;;;4.61;43.03;103260.66;4916890;28;97350;-74
2021/03/01 10:32:18;;;;;;;13.88;8.25;;;;;;;4.65;42.86;103260.09;4915124;28;98971;-74
2021/03/01 10:34:46;;;;;;;12.05;8.10;;;;;;;4.66;43.10;103260.25;4909210;28;99332;-73
2021/03/01 10:37:32;;;;;;;12.90;7.95;;;;;;;4.66;43.08;103269.88;4927160;28;96901;-74
2021/03/01 10:39:59;;;;;;;14.57;8.18;;;;;;;4.69;43.11;103264.84;4909816;28;98421;-75
2021/03/01 10:42:26;;;;;;;13.25;8.60;;;;;;;4.68;42.99;103263.91;4910400;28;99376;-74
2021/03/01 10:44:56;;;;;;;14.60;9.10;;;;;;;4.72;42.87;103270.38;4926191;28;98212;-74
2021/03/01 10:47:26;;;;;;;16.15;9.82;;;;;;;4.76;42.96;103272.47;4929370;28;96761;-73
2021/03/01 10:49:54;;;;;;;15.57;10.00;;;;;;;4.78;42.81;103261.28;4927615;28;97707;-74
2021/03/01 10:52:22;;;;;;;18.10;10.30;;;;;;;4.81;42.80;103266.78;4928959;28;98119;-74
2021/03/01 10:54:50;;;;;;;16.00;9.52;;;;;;;4.77;42.64;103264.69;4928399;28;97755;-76
2021/03/01 10:57:17;;;;;;;17.65;10.35;;;;;;;4.72;42.68;103254.53;4929314;28;96770;-74
2021/03/01 10:59:47;;;;;;;18.20;10.85;;;;;;;4.69;42.80;103262.19;4925180;28;97327;-74
2021/03/01 11:02:14;;;;;;;22.20;10.68;;;;;;;4.64;42.86;103260.91;4913901;28;99319;-74
2021/03/01 11:04:45;;;;;;;18.92;10.75;;;;;;;4.64;42.93;103260.91;4911609;28;99224;-74
2021/03/01 11:07:12;;;;;;;17.85;12.13;;;;;;;4.68;42.82;103258.63;4904637;28;97256;-74
2021/03/01 11:09:39;;;;;;;23.10;11.63;;;;;;;4.73;42.78;103252.06;4925649;28;97369;-75
2021/03/01 11:12:06;;;;;;;23.80;12.20;;;;;;;4.75;42.56;103252.19;4908460;28;98184;-75
2021/03/01 11:14:33;;;;;;;22.70;12.43;;;;;;;4.78;42.63;103252.44;4925854;28;97737;-73
2021/03/01 11:17:01;;;;;;;23.42;12.77;;;;;;;4.82;42.61;103250.19;4892646;28;96815;-74
2021/03/01 11:19:29;;;;;;;22.95;13.38;;;;;;;4.79;42.60;103257.81;4910755;28;97048;-73
2021/03/01 11:21:56;;;;;;;28.33;13.23;;;;;;;4.81;42.85;103244.78;4926627;28;97222;-75
2021/03/01 11:24:24;;;;;;;23.45;12.95;;;;;;;4.83;42.50;103248.44;4930390;28;98735;-74
2021/03/01 11:26:52;;;;;;;24.38;13.40;;;;;;;4.85;42.62;103244.22;4928535;28;96835;-74
2021/03/01 11:29:19;;;;;;;22.73;12.73;;;;;;;4.89;42.51;103239.34;4920588;28;98431;-76
2021/03/01 11:31:46;;;;;;;25.02;13.25;;;;;;;4.90;42.58;103235.00;4908982;28;97922;-74